createdAt,value
2022-11-08T00:00:01.659Z,1.40
2022-11-08T00:01:01.825Z,1.70
2022-11-08T00:02:01.746Z,1.40
2022-11-08T00:03:01.691Z,1.50
2022-11-08T00:04:01.600Z,1.60
2022-11-08T00:05:01.607Z,1.60
2022-11-08T00:06:01.587Z,1.50
2022-11-08T00:07:01.751Z,1.40
2022-11-08T00:08:01.562Z,1.90
2022-11-08T00:09:01.556Z,1.90
2022-11-08T00:10:01.549Z,1.70
2022-11-08T00:11:01.536Z,2.00
2022-11-08T00:12:01.531Z,1.70
2022-11-08T00:13:01.661Z,1.80
2022-11-08T00:14:01.495Z,1.80
2022-11-08T00:15:01.500Z,2.00
2022-11-08T00:16:01.481Z,1.90
2022-11-08T00:17:01.469Z,1.80
2022-11-08T00:18:01.608Z,2.00
2022-11-08T00:19:01.441Z,1.70
2022-11-08T00:20:01.451Z,1.40
2022-11-08T00:21:01.429Z,1.70
2022-11-08T00:22:01.419Z,1.90
2022-11-08T00:23:01.738Z,1.80
2022-11-08T00:24:01.406Z,1.90
2022-11-08T00:25:01.377Z,2.00
2022-11-08T00:26:01.366Z,2.00
2022-11-08T00:27:01.354Z,2.10
2022-11-08T00:28:01.397Z,2.00
2022-11-08T00:29:01.503Z,2.10
2022-11-08T00:30:01.322Z,1.60
2022-11-08T00:31:01.311Z,1.70
2022-11-08T00:32:01.336Z,1.60
2022-11-08T00:33:01.293Z,1.90
2022-11-08T00:34:01.300Z,1.70
2022-11-08T00:35:01.444Z,1.80
2022-11-08T00:36:01.253Z,1.90
2022-11-08T00:37:01.276Z,1.80
2022-11-08T00:38:01.240Z,1.90
2022-11-08T00:39:01.252Z,1.80
2022-11-08T00:40:01.295Z,1.80
2022-11-08T00:41:01.391Z,2.00
2022-11-08T00:42:01.211Z,2.00
2022-11-08T00:43:01.188Z,1.70
2022-11-08T00:44:01.209Z,1.50
2022-11-08T00:45:01.450Z,1.90
2022-11-08T00:46:01.186Z,1.60
2022-11-08T00:47:01.192Z,1.50
2022-11-08T00:48:01.128Z,1.70
2022-11-08T00:49:01.117Z,1.60
2022-11-08T00:50:01.145Z,1.60
2022-11-08T00:51:01.278Z,2.10
2022-11-08T00:52:01.102Z,1.60
2022-11-08T00:53:01.124Z,1.60
2022-11-08T00:54:01.097Z,1.70
2022-11-08T00:55:01.259Z,2.00
2022-11-08T00:56:01.059Z,1.60
2022-11-08T00:57:01.051Z,2.00
2022-11-08T00:58:01.041Z,1.40
2022-11-08T00:59:01.020Z,2.10
2022-11-08T01:00:01.008Z,1.90
2022-11-08T01:01:01.248Z,1.90
2022-11-08T01:02:01.031Z,2.30
2022-11-08T01:03:00.960Z,1.90
2022-11-08T01:04:00.950Z,1.70
2022-11-08T01:05:00.957Z,2.20
2022-11-08T01:06:01.097Z,1.70
2022-11-08T01:07:00.911Z,1.90
2022-11-08T01:08:00.907Z,1.90
2022-11-08T01:09:00.910Z,1.90
2022-11-08T01:10:00.898Z,1.70
2022-11-08T01:11:01.209Z,2.10
2022-11-08T01:12:00.869Z,1.80
2022-11-08T01:13:00.861Z,1.50
2022-11-08T01:14:00.837Z,1.60
2022-11-08T01:15:00.892Z,1.50
2022-11-08T01:16:00.824Z,1.90
2022-11-08T01:17:01.046Z,2.00
2022-11-08T01:18:00.820Z,1.80
2022-11-08T01:19:00.818Z,1.70
2022-11-08T01:20:00.784Z,2.20
2022-11-08T01:21:00.781Z,1.40
2022-11-08T01:22:00.756Z,2.10
2022-11-08T01:23:00.908Z,1.90
2022-11-08T01:24:00.737Z,2.10
2022-11-08T01:25:00.737Z,1.80
2022-11-08T01:26:00.739Z,1.70
2022-11-08T01:27:00.714Z,2.00
2022-11-08T01:28:00.860Z,1.80
2022-11-08T01:29:00.693Z,1.90
2022-11-08T01:30:00.677Z,2.00
2022-11-08T01:31:00.670Z,1.90
2022-11-08T01:32:00.662Z,1.60
2022-11-08T01:33:00.650Z,2.10
2022-11-08T01:34:00.797Z,2.00
2022-11-08T01:35:00.621Z,1.90
2022-11-08T01:36:00.615Z,1.80
2022-11-08T01:37:00.605Z,1.90
2022-11-08T01:38:00.599Z,1.90
2022-11-08T01:39:00.580Z,1.70
2022-11-08T01:40:00.764Z,1.60
2022-11-08T01:41:00.567Z,1.70
2022-11-08T01:42:00.557Z,2.00
2022-11-08T01:43:00.539Z,1.80
2022-11-08T01:46:18.657Z,1.60
2022-11-08T01:47:18.473Z,2.10
2022-11-08T01:48:18.733Z,1.80
2022-11-08T01:49:18.453Z,1.90
2022-11-08T01:50:18.435Z,1.90
2022-11-08T01:51:18.439Z,1.70
2022-11-08T01:52:18.604Z,2.10
2022-11-08T01:53:18.415Z,1.80
2022-11-08T01:54:18.392Z,1.80
2022-11-08T01:55:18.380Z,1.90
2022-11-08T01:56:18.375Z,1.80
2022-11-08T01:57:18.365Z,1.90
2022-11-08T01:58:18.802Z,1.80
2022-11-08T01:59:18.339Z,2.20
2022-11-08T02:00:18.330Z,2.40
2022-11-08T02:01:18.370Z,2.00
2022-11-08T02:02:18.361Z,1.70
2022-11-08T02:03:18.499Z,1.60
2022-11-08T02:04:18.311Z,2.00
2022-11-08T02:05:18.285Z,1.80
2022-11-08T02:06:18.273Z,2.00
2022-11-08T02:07:18.260Z,2.00
2022-11-08T02:08:18.565Z,2.10
2022-11-08T02:09:18.474Z,1.80
2022-11-08T02:10:18.236Z,2.10
2022-11-08T02:11:18.226Z,2.20
2022-11-08T02:12:18.204Z,2.00
2022-11-08T02:13:18.196Z,2.10
2022-11-08T02:14:18.176Z,2.00
2022-11-08T02:15:18.337Z,2.10
2022-11-08T02:16:18.182Z,2.00
2022-11-08T02:17:18.144Z,1.70
2022-11-08T02:18:18.385Z,1.90
2022-11-08T02:19:18.299Z,2.10
2022-11-08T02:20:18.104Z,2.20
2022-11-08T02:21:18.103Z,1.90
2022-11-08T02:22:18.104Z,2.30
2022-11-08T02:23:18.076Z,1.80
2022-11-08T02:24:18.063Z,2.10
2022-11-08T02:25:18.228Z,1.60
2022-11-08T02:26:18.051Z,2.30
2022-11-08T02:27:18.042Z,2.10
2022-11-08T02:28:18.364Z,2.50
2022-11-08T02:29:18.172Z,2.20
2022-11-08T02:30:18.103Z,2.20
2022-11-08T02:31:18.363Z,2.10
2022-11-08T02:32:17.982Z,1.90
2022-11-08T02:33:17.974Z,2.20
2022-11-08T02:34:17.964Z,1.80
2022-11-08T02:35:17.964Z,1.70
2022-11-08T02:36:17.954Z,2.00
2022-11-08T02:37:18.088Z,1.70
2022-11-08T02:38:18.282Z,1.80
2022-11-08T02:39:18.059Z,1.60
2022-11-08T02:40:17.887Z,2.00
2022-11-08T02:41:17.909Z,2.30
2022-11-08T02:42:17.877Z,1.90
2022-11-08T02:43:17.863Z,1.60
2022-11-08T02:44:18.016Z,1.90
2022-11-08T02:45:17.848Z,2.10
2022-11-08T02:46:17.822Z,2.00
2022-11-08T02:47:17.821Z,1.80
2022-11-08T02:48:18.071Z,1.60
2022-11-08T02:49:17.795Z,2.20
2022-11-08T02:50:17.954Z,2.20
2022-11-08T02:51:17.773Z,2.20
2022-11-08T02:52:17.762Z,2.20
2022-11-08T02:53:17.925Z,2.20
2022-11-08T02:54:17.733Z,2.00
2022-11-08T02:55:17.745Z,1.80
2022-11-08T02:56:17.723Z,2.10
2022-11-08T02:57:17.711Z,2.40
2022-11-08T02:58:17.991Z,2.00
2022-11-08T02:59:17.842Z,2.10
2022-11-08T03:00:17.678Z,2.30
2022-11-08T03:01:17.744Z,2.10
2022-11-08T03:02:17.789Z,2.20
2022-11-08T03:03:17.660Z,1.80
2022-11-08T03:04:17.809Z,2.10
2022-11-08T03:05:17.629Z,1.90
2022-11-08T03:06:17.611Z,1.90
2022-11-08T03:07:22.158Z,2.30
2022-11-08T03:08:18.931Z,2.40
2022-11-08T03:09:17.589Z,2.30
2022-11-08T03:10:17.892Z,2.10
2022-11-08T03:11:17.567Z,1.90
2022-11-08T03:12:17.552Z,2.00
2022-11-08T03:13:17.532Z,2.20
2022-11-08T03:14:17.536Z,2.10
2022-11-08T03:15:17.521Z,2.60
2022-11-08T03:16:17.695Z,2.40
2022-11-08T03:17:17.482Z,1.80
2022-11-08T03:18:17.796Z,1.90
2022-11-08T03:19:17.480Z,2.40
2022-11-08T03:20:17.455Z,2.60
2022-11-08T03:21:17.635Z,2.50
2022-11-08T03:22:17.438Z,1.90
2022-11-08T03:23:17.422Z,2.40
2022-11-08T03:24:17.414Z,2.30
2022-11-08T03:25:17.560Z,2.50
2022-11-08T03:26:17.398Z,2.50
2022-11-08T03:27:17.384Z,2.50
2022-11-08T03:28:22.504Z,2.60
2022-11-08T03:29:18.392Z,2.80
2022-11-08T03:30:17.342Z,2.20
2022-11-08T03:31:17.499Z,2.30
2022-11-08T03:32:17.343Z,2.10
2022-11-08T03:33:17.312Z,2.20
2022-11-08T03:34:17.303Z,2.20
2022-11-08T03:35:17.314Z,2.40
2022-11-08T03:36:17.434Z,2.20
2022-11-08T03:37:17.273Z,2.60
2022-11-08T03:38:17.526Z,2.20
2022-11-08T03:39:17.432Z,2.60
2022-11-08T03:40:17.242Z,2.00
2022-11-08T03:41:17.230Z,2.30
2022-11-08T03:42:17.221Z,2.20
2022-11-08T03:43:17.200Z,2.30
2022-11-08T03:44:17.184Z,2.80
2022-11-08T03:45:17.351Z,2.50
2022-11-08T03:46:17.183Z,2.00
2022-11-08T03:47:17.162Z,2.50
2022-11-08T03:48:17.383Z,2.20
2022-11-08T03:49:17.152Z,2.10
2022-11-08T03:50:17.134Z,2.30
2022-11-08T03:51:17.279Z,2.70
2022-11-08T03:52:17.125Z,2.70
2022-11-08T03:53:17.104Z,2.10
2022-11-08T03:54:17.089Z,2.50
2022-11-08T03:55:17.074Z,2.90
2022-11-08T03:56:17.288Z,2.20
2022-11-08T03:57:17.050Z,2.30
2022-11-08T03:58:17.506Z,2.50
2022-11-08T03:59:17.051Z,2.20
2022-11-08T04:00:17.020Z,2.20
2022-11-08T04:01:17.286Z,2.20
2022-11-08T04:02:17.077Z,2.90
2022-11-08T04:03:17.005Z,2.40
2022-11-08T04:04:16.974Z,2.80
2022-11-08T04:05:16.960Z,2.50
2022-11-08T04:06:16.946Z,2.40
2022-11-08T04:07:17.087Z,2.80
2022-11-08T04:08:17.314Z,2.30
2022-11-08T04:09:21.335Z,2.50
2022-11-08T04:10:16.903Z,2.40
2022-11-08T04:11:16.888Z,2.20
2022-11-08T04:12:16.895Z,2.80
2022-11-08T04:13:16.891Z,2.40
2022-11-08T04:14:17.055Z,2.40
2022-11-08T04:15:16.837Z,2.20
2022-11-08T04:16:18.082Z,2.80
2022-11-08T04:17:16.832Z,2.20
2022-11-08T04:18:17.408Z,2.20
2022-11-08T04:19:16.799Z,2.50
2022-11-08T04:20:17.027Z,2.60
2022-11-08T04:21:16.789Z,2.40
2022-11-08T04:22:16.781Z,2.50
2022-11-08T04:23:16.771Z,2.20
2022-11-08T04:24:16.757Z,2.40
2022-11-08T04:25:16.760Z,2.50
2022-11-08T04:26:16.960Z,2.50
2022-11-08T04:27:16.723Z,3.00
2022-11-08T04:28:17.147Z,2.70
2022-11-08T04:29:16.694Z,2.60
2022-11-08T04:30:16.698Z,2.70
2022-11-08T04:31:16.699Z,2.50
2022-11-08T04:32:16.944Z,3.20
2022-11-08T04:33:16.661Z,3.30
2022-11-08T04:34:16.652Z,3.10
2022-11-08T04:35:16.641Z,3.10
2022-11-08T04:36:16.626Z,3.20
2022-11-08T04:37:16.614Z,2.80
2022-11-08T04:38:17.182Z,3.20
2022-11-08T04:39:16.603Z,2.90
2022-11-08T04:40:16.579Z,3.20
2022-11-08T04:41:16.597Z,2.80
2022-11-08T04:42:16.557Z,2.60
2022-11-08T04:43:16.547Z,3.10
2022-11-08T04:44:16.697Z,2.90
2022-11-08T04:45:16.517Z,2.60
2022-11-08T04:46:16.516Z,3.10
2022-11-08T04:47:16.500Z,2.80
2022-11-08T04:48:16.821Z,2.80
2022-11-08T04:49:16.637Z,3.30
2022-11-08T04:50:16.470Z,3.30
2022-11-08T04:51:16.461Z,2.90
2022-11-08T04:52:16.607Z,2.40
2022-11-08T04:53:16.438Z,2.80
2022-11-08T04:54:16.425Z,3.10
2022-11-08T04:55:16.455Z,2.90
2022-11-08T04:56:16.401Z,3.30
2022-11-08T04:57:16.389Z,3.30
2022-11-08T04:58:16.878Z,3.10
2022-11-08T04:59:16.373Z,3.20
2022-11-08T05:00:16.366Z,3.20
2022-11-08T05:01:16.465Z,3.10
2022-11-08T05:02:16.456Z,3.10
2022-11-08T05:03:16.330Z,3.30
2022-11-08T05:04:16.554Z,3.30
2022-11-08T05:05:16.489Z,3.10
2022-11-08T05:06:16.296Z,3.00
2022-11-08T05:07:16.277Z,2.90
2022-11-08T05:08:16.515Z,3.40
2022-11-08T05:09:16.257Z,3.40
2022-11-08T05:10:16.408Z,3.00
2022-11-08T05:11:16.236Z,3.30
2022-11-08T05:12:16.240Z,3.50
2022-11-08T05:13:16.216Z,2.90
2022-11-08T05:14:16.206Z,2.90
2022-11-08T05:15:16.207Z,3.00
2022-11-08T05:16:16.372Z,3.00
2022-11-08T05:17:16.167Z,3.30
2022-11-08T05:18:16.680Z,3.00
2022-11-08T05:19:16.147Z,2.80
2022-11-08T05:20:16.139Z,3.30
2022-11-08T05:21:16.125Z,2.90
2022-11-08T05:22:16.345Z,2.80
2022-11-08T05:23:16.108Z,3.00
2022-11-08T05:24:16.097Z,3.10
2022-11-08T05:25:16.088Z,3.00
2022-11-08T05:26:16.083Z,2.80
2022-11-08T05:27:16.059Z,2.70
2022-11-08T05:28:16.430Z,3.00
2022-11-08T05:29:16.059Z,2.80
2022-11-08T05:30:16.031Z,3.20
2022-11-08T05:31:16.040Z,3.10
2022-11-08T05:32:16.005Z,2.90
2022-11-08T05:33:15.999Z,2.90
2022-11-08T05:34:16.164Z,3.10
2022-11-08T05:35:15.977Z,2.60
2022-11-08T05:36:15.964Z,2.60
2022-11-08T05:37:15.955Z,3.00
2022-11-08T05:38:16.287Z,3.30
2022-11-08T05:39:16.102Z,3.00
2022-11-08T05:40:15.917Z,2.90
2022-11-08T05:41:15.908Z,3.20
2022-11-08T05:42:15.903Z,3.30
2022-11-08T05:43:16.271Z,3.30
2022-11-08T05:44:15.934Z,3.10
2022-11-08T05:45:16.047Z,2.90
2022-11-08T05:46:15.908Z,3.10
2022-11-08T05:47:15.834Z,4.00
2022-11-08T05:48:16.225Z,3.10
2022-11-08T05:49:16.009Z,3.30
2022-11-08T05:50:19.387Z,3.50
2022-11-08T05:51:15.806Z,3.00
2022-11-08T05:52:15.789Z,2.90
2022-11-08T05:53:16.203Z,2.80
2022-11-08T05:54:15.784Z,2.80
2022-11-08T05:55:15.937Z,3.00
2022-11-08T05:56:15.769Z,2.80
2022-11-08T05:57:19.890Z,2.60
2022-11-08T05:58:16.746Z,3.10
2022-11-08T05:59:15.717Z,2.70
2022-11-08T06:00:15.716Z,2.70
2022-11-08T06:01:15.855Z,2.70
2022-11-08T06:02:15.793Z,2.40
2022-11-08T06:03:19.695Z,2.70
2022-11-08T06:04:16.674Z,2.40
2022-11-08T06:05:15.815Z,2.60
2022-11-08T06:06:15.626Z,2.50
2022-11-08T06:07:15.620Z,2.30
2022-11-08T06:08:15.616Z,2.40
2022-11-08T06:09:15.599Z,2.50
2022-11-08T06:10:15.600Z,2.40
2022-11-08T06:11:15.740Z,3.00
2022-11-08T06:12:15.569Z,3.00
2022-11-08T06:13:15.576Z,3.30
2022-11-08T06:14:15.556Z,3.20
2022-11-08T06:15:15.534Z,3.40
2022-11-08T06:16:15.732Z,3.50
2022-11-08T06:17:15.518Z,3.70
2022-11-08T06:18:15.518Z,3.60
2022-11-08T06:19:15.555Z,4.30
2022-11-08T06:20:15.485Z,4.00
2022-11-08T06:21:15.492Z,4.50
2022-11-08T06:22:15.669Z,4.20
2022-11-08T06:23:15.674Z,4.10
2022-11-08T06:24:15.438Z,4.20
2022-11-08T06:25:15.424Z,4.10
2022-11-08T06:26:15.419Z,4.20
2022-11-08T06:27:15.606Z,4.40
2022-11-08T06:28:15.394Z,4.70
2022-11-08T06:29:15.384Z,4.50
2022-11-08T06:30:15.380Z,4.50
2022-11-08T06:31:15.355Z,4.70
2022-11-08T06:32:15.362Z,5.10
2022-11-08T06:33:15.971Z,4.70
2022-11-08T06:34:15.623Z,4.60
2022-11-08T06:35:15.322Z,4.90
2022-11-08T06:36:15.312Z,4.90
2022-11-08T06:37:15.301Z,5.20
2022-11-08T06:38:15.285Z,4.70
2022-11-08T06:39:15.445Z,5.30
2022-11-08T06:40:15.294Z,5.10
2022-11-08T06:41:15.246Z,4.40
2022-11-08T06:42:15.238Z,4.90
2022-11-08T06:43:19.611Z,5.30
2022-11-08T06:44:16.380Z,5.50
2022-11-08T06:45:15.205Z,5.50
2022-11-08T06:46:15.427Z,5.50
2022-11-08T06:47:15.197Z,6.40
2022-11-08T06:48:15.189Z,5.80
2022-11-08T06:49:15.167Z,6.20
2022-11-08T06:50:15.158Z,6.30
2022-11-08T06:51:15.192Z,6.70
2022-11-08T06:52:15.302Z,7.60
2022-11-08T06:53:15.453Z,7.30
2022-11-08T06:54:17.820Z,7.20
2022-11-08T06:55:15.099Z,7.20
2022-11-08T06:56:15.082Z,8.50
2022-11-08T06:57:15.314Z,8.30
2022-11-08T06:58:15.069Z,7.70
2022-11-08T06:59:15.053Z,8.30
2022-11-08T07:00:15.080Z,8.30
2022-11-08T07:01:15.060Z,8.70
2022-11-08T07:02:15.207Z,8.60
2022-11-08T07:03:15.455Z,8.50
2022-11-08T07:04:15.015Z,9.30
2022-11-08T07:05:15.021Z,10.60
2022-11-08T07:06:14.980Z,10.70
2022-11-08T07:07:14.971Z,10.30
2022-11-08T07:08:15.407Z,10.70
2022-11-08T07:09:14.984Z,11.10
2022-11-08T07:10:14.933Z,10.60
2022-11-08T07:11:14.933Z,9.70
2022-11-08T07:12:14.913Z,9.60
2022-11-08T07:13:15.117Z,9.70
2022-11-08T07:14:15.275Z,9.20
2022-11-08T07:15:15.096Z,9.50
2022-11-08T07:16:14.872Z,8.40
2022-11-08T07:17:14.898Z,8.40
2022-11-08T07:18:14.904Z,7.90
2022-11-08T07:19:14.840Z,8.40
2022-11-08T07:20:14.987Z,8.40
2022-11-08T07:21:14.820Z,7.80
2022-11-08T07:22:14.968Z,7.60
2022-11-08T07:23:14.817Z,7.60
2022-11-08T07:24:14.792Z,7.50
2022-11-08T07:25:14.772Z,7.50
2022-11-08T07:26:14.754Z,7.10
2022-11-08T07:27:14.926Z,7.90
2022-11-08T07:28:14.742Z,6.80
2022-11-08T07:29:16.158Z,7.00
2022-11-08T07:30:14.722Z,6.50
2022-11-08T07:31:14.702Z,6.60
2022-11-08T07:32:14.726Z,6.20
2022-11-08T07:33:14.867Z,6.10
2022-11-08T07:34:14.679Z,6.30
2022-11-08T07:35:14.663Z,5.90
2022-11-08T07:36:14.652Z,5.20
2022-11-08T07:37:14.653Z,6.40
2022-11-08T07:38:14.632Z,5.30
2022-11-08T07:39:14.785Z,5.90
2022-11-08T07:40:14.612Z,5.30
2022-11-08T07:41:14.605Z,5.20
2022-11-08T07:42:14.590Z,5.00
2022-11-08T07:43:14.586Z,5.40
2022-11-08T07:44:14.565Z,5.10
2022-11-08T07:45:14.713Z,4.90
2022-11-08T07:46:14.544Z,4.70
2022-11-08T07:47:14.532Z,6.80
2022-11-08T07:48:14.534Z,8.10
2022-11-08T07:49:14.502Z,10.50
2022-11-08T07:50:17.811Z,11.30
2022-11-08T07:51:14.673Z,10.00
2022-11-08T07:52:14.476Z,10.10
2022-11-08T07:53:14.675Z,10.10
2022-11-08T07:54:14.475Z,9.90
2022-11-08T07:55:14.464Z,14.70
2022-11-08T07:56:14.612Z,14.50
2022-11-08T07:57:14.419Z,15.70
2022-11-08T07:58:14.421Z,18.70
2022-11-08T07:59:14.408Z,16.10
2022-11-08T08:00:14.392Z,10.70
2022-11-08T08:01:14.373Z,11.60
2022-11-08T08:02:14.690Z,11.60
2022-11-08T08:03:14.786Z,11.00
2022-11-08T08:04:14.342Z,9.20
2022-11-08T08:05:14.462Z,7.10
2022-11-08T08:06:14.327Z,7.00
2022-11-08T08:07:14.342Z,6.30
2022-11-08T08:08:14.306Z,5.90
2022-11-08T08:09:14.482Z,6.20
2022-11-08T08:10:14.283Z,5.70
2022-11-08T08:11:14.283Z,6.60
2022-11-08T08:12:14.268Z,6.90
2022-11-08T08:13:14.470Z,7.10
2022-11-08T08:14:14.248Z,7.10
2022-11-08T08:15:14.226Z,5.90
2022-11-08T08:16:14.231Z,5.60
2022-11-08T08:17:14.208Z,4.60
2022-11-08T08:18:14.221Z,4.40
2022-11-08T08:19:14.337Z,4.00
2022-11-08T08:20:14.364Z,3.80
2022-11-08T08:21:14.159Z,3.70
2022-11-08T08:22:14.152Z,3.40
2022-11-08T08:23:14.142Z,3.70
2022-11-08T08:24:14.129Z,3.30
2022-11-08T08:25:14.131Z,3.20
2022-11-08T08:26:14.296Z,3.00
2022-11-08T08:27:14.094Z,3.10
2022-11-08T08:28:14.079Z,3.30
2022-11-08T08:29:14.072Z,2.90
2022-11-08T08:30:14.062Z,3.00
2022-11-08T08:31:14.212Z,3.10
2022-11-08T08:32:14.037Z,2.90
2022-11-08T08:33:34.085Z,2.40
2022-11-08T08:34:15.011Z,2.60
2022-11-08T08:35:14.011Z,2.20
2022-11-08T08:36:14.163Z,2.80
2022-11-08T08:37:13.981Z,2.80
2022-11-08T08:38:13.991Z,2.30
2022-11-08T08:39:13.978Z,2.30
2022-11-08T08:40:13.951Z,2.30
2022-11-08T08:41:13.941Z,2.00
2022-11-08T08:42:14.139Z,1.90
2022-11-08T08:43:13.924Z,2.00
2022-11-08T08:44:13.902Z,1.50
2022-11-08T08:45:15.263Z,1.60
2022-11-08T08:46:13.881Z,1.90
2022-11-08T08:47:14.037Z,1.70
2022-11-08T08:48:13.861Z,2.10
2022-11-08T08:49:13.854Z,1.80
2022-11-08T08:50:13.992Z,1.40
2022-11-08T08:51:13.850Z,1.50
2022-11-08T08:52:13.836Z,1.60
2022-11-08T08:53:13.969Z,1.20
2022-11-08T08:54:13.807Z,1.30
2022-11-08T08:55:13.800Z,1.40
2022-11-08T08:56:13.787Z,1.40
2022-11-08T08:57:13.770Z,1.40
2022-11-08T08:58:13.787Z,1.40
2022-11-08T09:02:14.721Z,1.40
2022-11-08T09:03:13.710Z,1.00
2022-11-08T09:04:13.686Z,1.30
2022-11-08T09:05:13.831Z,1.30
2022-11-08T09:06:13.684Z,1.00
2022-11-08T09:07:13.713Z,1.20
2022-11-08T09:08:13.646Z,1.20
2022-11-08T09:09:13.634Z,1.10
2022-11-08T09:10:13.629Z,1.30
2022-11-08T09:11:13.796Z,1.40
2022-11-08T09:12:14.822Z,2.10
2022-11-08T09:13:13.595Z,1.50
2022-11-08T09:14:13.580Z,1.40
2022-11-08T09:15:13.568Z,1.70
2022-11-08T09:16:13.565Z,1.30
2022-11-08T09:17:13.751Z,1.30
2022-11-08T09:18:13.577Z,1.00
2022-11-08T09:19:13.558Z,1.40
2022-11-08T09:20:13.518Z,1.10
2022-11-08T09:21:13.545Z,1.20
2022-11-08T09:22:13.530Z,0.90
2022-11-08T09:23:13.644Z,1.20
2022-11-08T09:24:13.470Z,1.10
2022-11-08T09:25:13.477Z,1.30
2022-11-08T09:26:13.447Z,1.00
2022-11-08T09:27:13.441Z,0.90
2022-11-08T09:28:13.424Z,1.10
2022-11-08T09:29:13.669Z,1.20
2022-11-08T09:30:13.421Z,1.10
2022-11-08T09:31:13.394Z,1.20
2022-11-08T09:32:13.388Z,0.80
2022-11-08T09:33:13.389Z,1.10
2022-11-08T09:34:16.275Z,1.00
2022-11-08T09:35:14.511Z,1.20
2022-11-08T09:36:13.349Z,1.20
2022-11-08T09:37:13.342Z,1.10
2022-11-08T09:38:13.337Z,0.90
2022-11-08T09:39:13.304Z,1.10
2022-11-08T09:40:13.359Z,1.30
2022-11-08T09:41:13.453Z,1.40
2022-11-08T09:42:13.271Z,1.50
2022-11-08T09:43:13.268Z,1.60
2022-11-08T09:44:13.261Z,1.90
2022-11-08T09:45:13.256Z,1.00
2022-11-08T09:46:13.221Z,1.00
2022-11-08T09:47:13.382Z,1.00
2022-11-08T09:48:13.212Z,1.10
2022-11-08T09:49:13.200Z,0.80
2022-11-08T09:50:13.208Z,1.00
2022-11-08T09:51:13.170Z,1.10
2022-11-08T09:52:13.531Z,1.00
2022-11-08T09:53:13.151Z,0.90
2022-11-08T09:54:17.070Z,1.10
2022-11-08T09:55:14.141Z,1.00
2022-11-08T09:56:13.125Z,1.20
2022-11-08T09:57:13.111Z,0.90
2022-11-08T09:58:13.123Z,1.00
2022-11-08T09:59:13.093Z,0.80
2022-11-08T10:00:13.083Z,1.40
2022-11-08T10:01:13.146Z,0.90
2022-11-08T10:02:13.134Z,1.10
2022-11-08T10:03:13.105Z,1.40
2022-11-08T10:04:13.031Z,1.20
2022-11-08T10:05:13.029Z,1.30
2022-11-08T10:06:13.033Z,1.40
2022-11-08T10:07:13.008Z,1.60
2022-11-08T10:08:13.010Z,1.40
2022-11-08T10:09:13.012Z,1.10
2022-11-08T10:10:12.966Z,1.30
2022-11-08T10:11:12.966Z,1.40
2022-11-08T10:12:12.939Z,1.40
2022-11-08T10:13:12.942Z,1.30
2022-11-08T10:14:12.934Z,1.20
2022-11-08T10:15:13.075Z,1.10
2022-11-08T10:16:12.901Z,1.30
2022-11-08T10:17:12.920Z,1.40
2022-11-08T10:18:12.884Z,0.90
2022-11-08T10:19:12.882Z,1.10
2022-11-08T10:20:12.860Z,1.10
2022-11-08T10:21:12.879Z,1.20
2022-11-08T10:22:12.831Z,1.00
2022-11-08T10:23:12.854Z,1.30
2022-11-08T10:24:12.835Z,1.10
2022-11-08T10:25:12.807Z,1.20
2022-11-08T10:26:12.805Z,1.10
2022-11-08T10:27:13.101Z,1.10
2022-11-08T10:28:12.770Z,0.80
2022-11-08T10:29:12.787Z,1.20
2022-11-08T10:30:12.762Z,1.10
2022-11-08T10:31:12.742Z,1.10
2022-11-08T10:32:12.725Z,1.10
2022-11-08T10:33:12.928Z,0.90
2022-11-08T10:34:12.705Z,1.10
2022-11-08T10:35:12.692Z,1.40
2022-11-08T10:36:12.680Z,1.20
2022-11-08T10:37:12.669Z,0.90
2022-11-08T10:38:12.663Z,1.10
2022-11-08T10:39:12.859Z,1.00
2022-11-08T10:40:12.631Z,1.20
2022-11-08T10:41:12.634Z,1.30
2022-11-08T10:42:12.622Z,1.20
2022-11-08T10:43:12.607Z,1.20
2022-11-08T10:44:12.598Z,1.30
2022-11-08T10:45:12.799Z,1.40
2022-11-08T10:46:12.575Z,4.00
2022-11-08T10:47:12.563Z,2.90
2022-11-08T10:48:12.562Z,1.50
2022-11-08T10:49:12.542Z,1.40
2022-11-08T10:50:12.684Z,1.70
2022-11-08T10:51:12.518Z,1.40
2022-11-08T10:52:12.521Z,1.30
2022-11-08T10:53:12.510Z,1.10
2022-11-08T10:54:12.485Z,1.00
2022-11-08T10:55:12.660Z,1.00
2022-11-08T10:56:12.474Z,0.90
2022-11-08T10:57:12.461Z,0.80
2022-11-08T10:58:12.450Z,1.20
2022-11-08T10:59:12.432Z,1.00
2022-11-08T11:00:12.423Z,0.80
2022-11-08T11:01:12.602Z,1.00
2022-11-08T11:02:12.499Z,1.20
2022-11-08T11:03:12.392Z,1.00
2022-11-08T11:04:12.377Z,1.00
2022-11-08T11:05:12.375Z,1.10
2022-11-08T11:06:12.355Z,1.30
2022-11-08T11:07:12.608Z,0.80
2022-11-08T11:08:12.341Z,0.80
2022-11-08T11:09:12.321Z,1.20
2022-11-08T11:10:12.314Z,0.90
2022-11-08T11:11:12.300Z,0.80
2022-11-08T11:12:12.287Z,1.00
2022-11-08T11:13:12.520Z,0.60
2022-11-08T11:14:16.281Z,0.90
2022-11-08T11:15:13.250Z,1.00
2022-11-08T11:16:12.271Z,1.00
2022-11-08T11:17:12.273Z,0.80
2022-11-08T11:18:12.231Z,0.90
2022-11-08T11:19:12.361Z,1.10
2022-11-08T11:20:12.201Z,0.70
2022-11-08T11:21:12.199Z,0.70
2022-11-08T11:22:12.172Z,0.70
2022-11-08T11:23:12.168Z,0.70
2022-11-08T11:24:15.442Z,0.70
2022-11-08T11:25:13.162Z,0.80
2022-11-08T11:26:12.130Z,0.70
2022-11-08T11:27:12.128Z,0.60
2022-11-08T11:28:12.110Z,0.50
2022-11-08T11:29:12.275Z,0.70
2022-11-08T11:30:12.111Z,0.50
2022-11-08T11:31:12.090Z,0.70
2022-11-08T11:32:12.072Z,0.50
2022-11-08T11:33:12.084Z,0.40
2022-11-08T11:34:12.052Z,0.70
2022-11-08T11:35:12.210Z,1.00
2022-11-08T11:36:13.693Z,1.10
2022-11-08T11:37:12.032Z,0.60
2022-11-08T11:38:12.002Z,0.70
2022-11-08T11:39:11.999Z,0.60
2022-11-08T11:40:11.980Z,0.80
2022-11-08T11:41:12.201Z,0.60
2022-11-08T11:42:39.046Z,0.70
2022-11-08T11:43:12.955Z,0.70
2022-11-08T11:44:11.933Z,0.70
2022-11-08T11:45:11.931Z,0.80
2022-11-08T11:46:12.086Z,0.60
2022-11-08T11:47:12.060Z,0.60
2022-11-08T11:48:11.899Z,0.60
2022-11-08T11:49:11.886Z,0.40
2022-11-08T11:50:11.870Z,0.60
2022-11-08T11:51:11.906Z,0.60
2022-11-08T11:52:12.034Z,0.70
2022-11-08T11:53:11.842Z,0.80
2022-11-08T11:54:11.831Z,0.60
2022-11-08T11:55:11.812Z,0.70
2022-11-08T11:56:11.801Z,0.60
2022-11-08T11:57:11.794Z,1.10
2022-11-08T11:58:12.019Z,0.70
2022-11-08T11:59:11.770Z,0.60
2022-11-08T12:00:11.752Z,0.70
2022-11-08T12:01:14.435Z,0.60
2022-11-08T12:02:11.778Z,0.70
2022-11-08T12:03:11.725Z,0.70
2022-11-08T12:04:12.084Z,0.50
2022-11-08T12:05:11.701Z,0.70
2022-11-08T12:06:11.722Z,0.60
2022-11-08T12:07:11.787Z,0.50
2022-11-08T12:08:11.705Z,0.60
2022-11-08T12:09:11.831Z,0.70
2022-11-08T12:10:11.642Z,0.80
2022-11-08T12:11:11.642Z,0.70
2022-11-08T12:12:11.630Z,0.70
2022-11-08T12:13:11.623Z,0.60
2022-11-08T12:14:11.773Z,0.90
2022-11-08T12:15:11.600Z,0.60
2022-11-08T12:16:11.590Z,0.40
2022-11-08T12:17:11.580Z,0.70
2022-11-08T12:18:12.035Z,0.80
2022-11-08T12:19:11.550Z,0.60
2022-11-08T12:20:12.047Z,0.60
2022-11-08T12:21:11.549Z,0.60
2022-11-08T12:22:11.542Z,0.50
2022-11-08T12:23:11.520Z,0.80
2022-11-08T12:24:11.531Z,0.80
2022-11-08T12:25:11.637Z,0.50
2022-11-08T12:26:11.464Z,0.50
2022-11-08T12:27:11.465Z,0.70
2022-11-08T12:28:11.462Z,0.70
2022-11-08T12:29:11.444Z,0.50
2022-11-08T12:30:11.739Z,0.60
2022-11-08T12:31:11.419Z,0.70
2022-11-08T12:32:11.422Z,0.50
2022-11-08T12:33:11.409Z,0.60
2022-11-08T12:34:11.391Z,0.50
2022-11-08T12:35:11.531Z,0.70
2022-11-08T12:36:11.370Z,0.60
2022-11-08T12:37:11.355Z,0.60
2022-11-08T12:38:11.347Z,0.70
2022-11-08T12:39:11.337Z,0.70
2022-11-08T12:40:11.372Z,0.50
2022-11-08T12:41:11.482Z,0.70
2022-11-08T12:42:11.304Z,0.50
2022-11-08T12:43:11.291Z,0.60
2022-11-08T12:44:11.282Z,0.90
2022-11-08T12:45:11.280Z,0.70
2022-11-08T12:46:11.253Z,0.50
2022-11-08T12:47:11.420Z,0.80
2022-11-08T12:48:11.230Z,0.60
2022-11-08T12:49:11.213Z,0.60
2022-11-08T12:50:11.252Z,0.60
2022-11-08T12:51:11.197Z,0.70
2022-11-08T12:52:11.185Z,0.70
2022-11-08T12:53:11.332Z,0.70
2022-11-08T12:54:11.162Z,0.60
2022-11-08T12:55:11.153Z,0.70
2022-11-08T12:56:11.141Z,0.60
2022-11-08T12:57:11.136Z,0.60
2022-11-08T12:58:11.285Z,0.70
2022-11-08T12:59:11.107Z,0.60
2022-11-08T13:00:11.138Z,0.70
2022-11-08T13:01:11.175Z,0.80
2022-11-08T13:02:11.081Z,1.20
2022-11-08T13:03:11.067Z,0.80
2022-11-08T13:04:11.231Z,0.60
2022-11-08T13:05:11.041Z,0.50
2022-11-08T13:06:11.034Z,0.60
2022-11-08T13:07:11.095Z,0.60
2022-11-08T13:08:11.012Z,0.70
2022-11-08T13:09:11.005Z,0.70
2022-11-08T13:10:12.649Z,0.70
2022-11-08T13:11:10.975Z,0.60
2022-11-08T13:12:11.322Z,0.70
2022-11-08T13:13:10.966Z,0.70
2022-11-08T13:14:10.950Z,0.60
2022-11-08T13:15:10.934Z,0.80
2022-11-08T13:16:10.923Z,0.70
2022-11-08T13:17:10.913Z,0.50
2022-11-08T13:18:11.118Z,0.50
2022-11-08T13:19:10.897Z,0.50
2022-11-08T13:20:10.901Z,0.60
2022-11-08T13:21:10.881Z,0.50
2022-11-08T13:22:10.863Z,0.60